createdAt,value
2019-04-30T00:01:17.019Z,9.40
2019-04-30T00:03:46.123Z,9.30
2019-04-30T00:06:15.811Z,9.40
2019-04-30T00:08:45.238Z,9.40
2019-04-30T00:11:17.888Z,9.30
2019-04-30T00:13:45.975Z,9.30
2019-04-30T00:16:15.459Z,9.30
2019-04-30T00:18:55.557Z,9.30
2019-04-30T00:21:18.658Z,9.30
2019-04-30T00:23:46.999Z,9.30
2019-04-30T00:26:17.286Z,9.30
2019-04-30T00:28:47.868Z,9.20
2019-04-30T00:31:23.467Z,9.20
2019-04-30T00:33:48.299Z,9.10
2019-04-30T00:36:17.636Z,9.10
2019-04-30T00:38:46.898Z,9.10
2019-04-30T00:41:16.171Z,9.30
2019-04-30T00:43:49.667Z,9.20
2019-04-30T00:46:24.753Z,9.20
2019-04-30T00:48:48.179Z,9.20
2019-04-30T00:51:21.037Z,9.20
2019-04-30T00:53:51.176Z,9.30
2019-04-30T00:56:26.456Z,9.30
2019-04-30T00:58:51.829Z,9.30
2019-04-30T01:01:25.704Z,9.30
2019-04-30T01:04:15.151Z,9.30
2019-04-30T01:06:46.193Z,9.30
2019-04-30T01:09:15.755Z,9.30
2019-04-30T01:11:48.055Z,9.50
2019-04-30T01:14:16.360Z,9.50
2019-04-30T01:16:45.914Z,9.40
2019-04-30T01:19:28.370Z,9.40
2019-04-30T01:21:48.270Z,9.40
2019-04-30T01:24:19.015Z,9.50
2019-04-30T01:26:50.536Z,9.50
2019-04-30T01:29:20.876Z,9.40
2019-04-30T01:31:50.152Z,9.50
2019-04-30T01:34:19.713Z,9.40
2019-04-30T01:36:52.224Z,9.30
2019-04-30T01:39:23.726Z,9.40
2019-04-30T01:41:51.831Z,9.40
2019-04-30T01:44:21.424Z,9.40
2019-04-30T01:46:51.760Z,9.30
2019-04-30T01:49:25.763Z,9.40
2019-04-30T01:51:52.898Z,9.40
2019-04-30T01:54:24.362Z,9.30
2019-04-30T01:57:01.851Z,9.40
2019-04-30T01:59:48.681Z,9.30
2019-04-30T02:02:18.628Z,9.40
2019-04-30T02:04:49.205Z,9.40
2019-04-30T02:07:19.091Z,9.30
2019-04-30T02:09:48.937Z,9.30
2019-04-30T02:12:19.750Z,9.30
2019-04-30T02:14:51.897Z,9.40
2019-04-30T02:17:20.684Z,9.40
2019-04-30T02:19:56.579Z,9.40
2019-04-30T02:22:20.949Z,9.40
2019-04-30T02:24:50.215Z,9.40
2019-04-30T02:27:21.667Z,9.50
2019-04-30T02:29:50.496Z,9.50
2019-04-30T02:32:20.766Z,9.40
2019-04-30T02:34:51.879Z,9.40
2019-04-30T02:37:25.886Z,9.40
2019-04-30T02:39:55.158Z,9.50
2019-04-30T02:42:25.414Z,9.40
2019-04-30T02:44:55.921Z,9.50
2019-04-30T02:47:26.427Z,9.40
2019-04-30T02:50:11.498Z,9.40
2019-04-30T02:52:29.281Z,9.50
2019-04-30T02:55:00.465Z,9.40
2019-04-30T02:57:29.981Z,9.50
2019-04-30T03:00:10.338Z,9.40
2019-04-30T03:02:39.668Z,9.50
2019-04-30T03:05:13.614Z,9.50
2019-04-30T03:07:41.532Z,9.50
2019-04-30T03:10:11.136Z,9.40
2019-04-30T03:12:40.840Z,9.50
2019-04-30T03:15:10.328Z,9.50
2019-04-30T03:17:47.332Z,9.50
2019-04-30T03:20:31.360Z,9.40
2019-04-30T03:22:51.209Z,9.50
2019-04-30T03:25:20.231Z,9.40
2019-04-30T03:27:49.965Z,9.30
2019-04-30T03:30:21.745Z,9.40
2019-04-30T03:32:56.617Z,9.40
2019-04-30T03:35:23.019Z,9.50
2019-04-30T03:37:52.934Z,9.40
2019-04-30T03:40:22.538Z,9.40
2019-04-30T03:42:52.151Z,9.40
2019-04-30T03:45:21.749Z,9.50
2019-04-30T03:47:51.020Z,9.60
2019-04-30T03:50:20.302Z,9.60
2019-04-30T03:52:50.408Z,9.60
2019-04-30T03:55:20.601Z,9.60
2019-04-30T03:57:51.936Z,9.60
2019-04-30T04:00:25.990Z,9.70
2019-04-30T04:02:55.254Z,9.70
2019-04-30T04:05:32.400Z,9.70
2019-04-30T04:08:19.539Z,9.70
2019-04-30T04:10:56.633Z,9.70
2019-04-30T04:13:26.241Z,9.70
2019-04-30T04:15:55.518Z,9.70
2019-04-30T04:18:24.787Z,9.60
2019-04-30T04:21:07.470Z,9.60
2019-04-30T04:23:25.061Z,9.60
2019-04-30T04:25:54.370Z,9.60
2019-04-30T04:28:23.612Z,9.80
2019-04-30T04:30:53.189Z,9.80
2019-04-30T04:33:22.492Z,9.70
2019-04-30T04:35:51.775Z,9.80
2019-04-30T04:38:21.047Z,9.70
2019-04-30T04:40:50.499Z,9.70
2019-04-30T04:43:20.347Z,9.70
2019-04-30T04:45:50.343Z,9.80
2019-04-30T04:48:23.006Z,9.90
2019-04-30T04:50:50.582Z,9.80
2019-04-30T04:53:20.220Z,10.00
2019-04-30T04:55:50.085Z,9.90
2019-04-30T04:58:21.580Z,10.00
2019-04-30T05:00:50.475Z,10.10
2019-04-30T05:03:24.299Z,10.10
2019-04-30T05:05:53.578Z,10.00
2019-04-30T05:08:22.857Z,9.90
2019-04-30T05:10:52.447Z,10.00
2019-04-30T05:13:21.726Z,10.00
2019-04-30T05:15:51.704Z,10.10
2019-04-30T05:18:22.757Z,10.20
2019-04-30T05:20:52.135Z,10.20
2019-04-30T05:23:22.024Z,10.30
2019-04-30T05:25:51.272Z,10.30
2019-04-30T05:28:20.551Z,10.30
2019-04-30T05:30:49.836Z,10.30
2019-04-30T05:33:19.120Z,10.30
2019-04-30T05:35:49.612Z,10.30
2019-04-30T05:38:19.251Z,10.40
2019-04-30T05:40:49.536Z,10.40
2019-04-30T05:43:19.330Z,10.40
2019-04-30T05:45:49.176Z,10.50
2019-04-30T05:48:18.909Z,10.50
2019-04-30T05:50:51.483Z,10.40
2019-04-30T05:53:19.526Z,10.50
2019-04-30T05:55:49.426Z,10.40
2019-04-30T05:58:19.726Z,10.40
2019-04-30T06:00:49.945Z,10.50
2019-04-30T06:03:27.727Z,10.60
2019-04-30T06:05:50.462Z,10.50
2019-04-30T06:08:21.710Z,10.60
2019-04-30T06:10:52.636Z,10.50
2019-04-30T06:13:23.899Z,10.50
2019-04-30T06:16:01.228Z,10.60
2019-04-30T06:18:30.788Z,10.50
2019-04-30T06:21:00.399Z,10.60
2019-04-30T06:23:29.680Z,10.60
2019-04-30T06:26:08.738Z,10.70
2019-04-30T06:28:31.181Z,10.90
2019-04-30T06:31:00.477Z,11.00
2019-04-30T06:33:29.826Z,11.00
2019-04-30T06:35:59.488Z,11.00
2019-04-30T06:38:29.178Z,11.10
2019-04-30T06:40:58.905Z,11.10
2019-04-30T06:43:28.831Z,11.10
2019-04-30T06:45:58.994Z,11.20
2019-04-30T06:48:30.288Z,11.10
2019-04-30T06:50:59.557Z,11.00
2019-04-30T06:53:29.258Z,11.20
2019-04-30T06:55:59.096Z,11.20
2019-04-30T06:58:29.213Z,11.30
2019-04-30T07:00:59.576Z,11.10
2019-04-30T07:03:29.258Z,11.10
2019-04-30T07:05:58.724Z,11.20
2019-04-30T07:08:39.619Z,11.20
2019-04-30T07:11:21.778Z,11.30
2019-04-30T07:13:52.165Z,11.20
2019-04-30T07:16:21.860Z,11.10
2019-04-30T07:18:51.142Z,11.20
2019-04-30T07:21:20.416Z,11.20
2019-04-30T07:23:49.698Z,11.10
2019-04-30T07:26:24.169Z,11.30
2019-04-30T07:28:54.796Z,11.30
2019-04-30T07:31:20.985Z,11.30
2019-04-30T07:33:53.584Z,11.30
2019-04-30T07:36:21.270Z,11.40
2019-04-30T07:38:56.262Z,11.40
2019-04-30T07:41:21.554Z,11.50
2019-04-30T07:43:50.840Z,11.50
2019-04-30T07:46:20.137Z,11.30
2019-04-30T07:48:50.170Z,11.40
2019-04-30T07:51:21.230Z,11.30
2019-04-30T07:53:50.719Z,11.30
2019-04-30T07:56:27.833Z,11.40
2019-04-30T07:58:51.011Z,11.40
2019-04-30T08:01:20.293Z,11.40
2019-04-30T08:04:08.870Z,11.30
2019-04-30T08:06:39.690Z,11.40
2019-04-30T08:09:10.907Z,11.50
2019-04-30T08:11:43.450Z,11.60
2019-04-30T08:14:11.179Z,11.50
2019-04-30T08:16:40.454Z,11.60
2019-04-30T08:19:09.735Z,11.40
2019-04-30T08:21:39.015Z,11.50
2019-04-30T08:24:09.289Z,11.40
2019-04-30T08:26:39.749Z,11.40
2019-04-30T08:29:09.696Z,11.50
2019-04-30T08:31:40.845Z,11.60
2019-04-30T08:34:10.931Z,11.70
2019-04-30T08:36:40.433Z,11.60
2019-04-30T08:39:09.758Z,11.60
2019-04-30T08:41:39.294Z,11.50
2019-04-30T08:44:09.412Z,11.50
2019-04-30T08:46:38.860Z,11.50
2019-04-30T08:49:09.737Z,11.40
2019-04-30T08:51:39.462Z,11.30
2019-04-30T08:54:09.642Z,11.50
2019-04-30T08:56:38.907Z,11.60
2019-04-30T08:59:08.745Z,11.70
2019-04-30T09:01:39.203Z,11.50
2019-04-30T09:04:10.359Z,11.60
2019-04-30T09:06:40.141Z,11.60
2019-04-30T09:09:11.520Z,11.70
2019-04-30T09:11:51.962Z,11.70
2019-04-30T09:14:12.144Z,11.70
2019-04-30T09:16:41.463Z,11.60
2019-04-30T09:19:11.055Z,11.70
2019-04-30T09:21:40.328Z,11.80
2019-04-30T09:24:09.960Z,11.90
2019-04-30T09:26:39.568Z,12.10
2019-04-30T09:29:09.404Z,12.00
2019-04-30T09:31:40.766Z,12.00
2019-04-30T09:34:16.978Z,12.00
2019-04-30T09:36:41.074Z,12.00
2019-04-30T09:39:10.680Z,12.00
2019-04-30T09:41:41.174Z,12.10
2019-04-30T09:44:10.814Z,12.40
2019-04-30T09:46:40.416Z,12.70
2019-04-30T09:49:09.732Z,12.80
2019-04-30T09:51:39.718Z,12.90
2019-04-30T09:54:12.291Z,12.80
2019-04-30T09:56:40.526Z,12.50
2019-04-30T09:59:09.874Z,12.60
2019-04-30T10:01:39.602Z,12.70
2019-04-30T10:04:10.286Z,12.70
2019-04-30T10:06:40.422Z,12.80
2019-04-30T10:09:11.531Z,12.90
2019-04-30T10:11:45.452Z,13.10
2019-04-30T10:14:14.729Z,13.40
2019-04-30T10:16:59.436Z,13.40
2019-04-30T10:19:29.346Z,13.60
2019-04-30T10:21:59.021Z,13.10
2019-04-30T10:24:29.502Z,12.90
2019-04-30T10:26:59.876Z,13.20
2019-04-30T10:29:29.879Z,13.20
2019-04-30T10:31:59.159Z,13.10
2019-04-30T10:34:28.449Z,13.00
2019-04-30T10:36:59.584Z,13.00
2019-04-30T10:39:29.811Z,13.40
2019-04-30T10:41:59.941Z,13.50
2019-04-30T10:44:29.838Z,14.00
2019-04-30T10:46:59.470Z,14.30
2019-04-30T10:49:29.241Z,14.50
2019-04-30T10:52:00.814Z,14.60
2019-04-30T10:54:29.614Z,15.00
2019-04-30T10:56:59.275Z,15.30
2019-04-30T10:59:28.651Z,15.20
2019-04-30T11:01:59.195Z,14.70
2019-04-30T11:04:28.597Z,14.30
2019-04-30T11:07:00.382Z,14.20
2019-04-30T11:09:31.137Z,13.90
2019-04-30T11:12:03.045Z,13.90
2019-04-30T11:14:32.205Z,14.00
2019-04-30T11:17:01.752Z,14.30
2019-04-30T11:19:31.434Z,14.50
2019-04-30T11:22:00.887Z,15.00
2019-04-30T11:24:36.551Z,15.60
2019-04-30T11:27:02.000Z,15.80
2019-04-30T11:29:31.899Z,15.60
2019-04-30T11:32:06.154Z,15.70
2019-04-30T11:34:35.537Z,15.90
2019-04-30T11:37:04.818Z,15.80
2019-04-30T11:39:34.090Z,15.60
2019-04-30T11:42:03.644Z,15.70
2019-04-30T11:44:32.919Z,16.10
2019-04-30T11:47:10.025Z,16.50
2019-04-30T11:49:39.633Z,17.10
2019-04-30T11:52:09.243Z,17.10
2019-04-30T11:54:48.745Z,16.80
2019-04-30T11:57:10.200Z,16.30
2019-04-30T11:59:39.805Z,16.40
2019-04-30T12:02:14.022Z,16.40
2019-04-30T12:04:43.294Z,16.80
2019-04-30T12:07:16.707Z,17.10
2019-04-30T12:09:53.771Z,17.10
2019-04-30T12:12:23.998Z,16.50
2019-04-30T12:14:53.625Z,16.80
2019-04-30T12:17:23.240Z,17.10
2019-04-30T12:19:52.848Z,16.80
2019-04-30T12:22:22.219Z,16.30
2019-04-30T12:25:02.315Z,15.90
2019-04-30T12:27:22.749Z,15.90
2019-04-30T12:29:52.302Z,16.70
2019-04-30T12:32:21.902Z,17.10
2019-04-30T12:34:51.513Z,17.40
2019-04-30T12:37:21.116Z,17.60
2019-04-30T12:39:50.393Z,17.60
2019-04-30T12:42:19.740Z,18.10
2019-04-30T12:44:49.628Z,18.10
2019-04-30T12:47:21.778Z,18.30
2019-04-30T12:50:09.529Z,18.50
2019-04-30T12:52:40.502Z,18.40
2019-04-30T12:55:15.522Z,18.90
2019-04-30T12:57:58.169Z,19.40
2019-04-30T13:00:19.467Z,19.90
2019-04-30T13:02:48.847Z,20.10
2019-04-30T13:05:19.136Z,19.70
2019-04-30T13:07:50.092Z,19.00
2019-04-30T13:10:20.656Z,19.10
2019-04-30T13:12:50.930Z,19.50
2019-04-30T13:15:20.792Z,19.90
2019-04-30T13:17:50.225Z,20.00
2019-04-30T13:20:23.842Z,20.40
2019-04-30T13:22:50.528Z,20.80
2019-04-30T13:25:30.007Z,20.90
2019-04-30T13:27:52.445Z,20.90
2019-04-30T13:30:24.270Z,20.80
2019-04-30T13:33:12.989Z,20.50
2019-04-30T13:35:42.271Z,20.60
2019-04-30T13:38:13.202Z,20.80
2019-04-30T13:40:56.263Z,20.90
2019-04-30T13:43:43.501Z,21.00
2019-04-30T13:46:12.780Z,20.90
2019-04-30T13:48:42.058Z,20.90
2019-04-30T13:51:11.334Z,21.00
2019-04-30T13:53:40.620Z,21.10
2019-04-30T13:56:09.895Z,21.10
2019-04-30T13:58:39.244Z,21.50
2019-04-30T14:01:08.517Z,21.90
2019-04-30T14:03:39.438Z,22.60
2019-04-30T14:06:10.357Z,22.80
2019-04-30T14:08:41.619Z,22.70
2019-04-30T14:11:10.897Z,22.20
2019-04-30T14:13:40.313Z,21.70
2019-04-30T14:16:09.592Z,21.70
2019-04-30T14:18:39.236Z,21.80
2019-04-30T14:21:09.370Z,21.50
2019-04-30T14:23:39.630Z,21.70
2019-04-30T14:26:09.388Z,22.10
2019-04-30T14:28:39.150Z,22.40
2019-04-30T14:31:08.526Z,22.40
2019-04-30T14:33:40.030Z,22.70
2019-04-30T14:36:09.117Z,22.60
2019-04-30T14:38:40.484Z,22.70
2019-04-30T14:41:10.133Z,22.50
2019-04-30T14:43:42.882Z,22.40
2019-04-30T14:46:31.159Z,22.20
2019-04-30T14:49:04.449Z,22.00
2019-04-30T14:51:34.053Z,21.60
2019-04-30T14:54:17.765Z,21.20
2019-04-30T14:56:54.948Z,20.80
2019-04-30T14:59:29.072Z,20.90
2019-04-30T15:02:00.309Z,21.10
2019-04-30T15:04:29.590Z,21.20
2019-04-30T15:06:59.218Z,21.10
2019-04-30T15:09:28.934Z,21.20
2019-04-30T15:11:58.655Z,21.30
2019-04-30T15:14:27.895Z,21.50
2019-04-30T15:16:57.161Z,21.80
2019-04-30T15:19:26.690Z,22.10
2019-04-30T15:21:55.971Z,22.30
2019-04-30T15:24:33.056Z,22.40
2019-04-30T15:27:02.329Z,22.30
2019-04-30T15:29:31.931Z,22.10
2019-04-30T15:32:01.200Z,21.80
2019-04-30T15:34:30.476Z,22.00
2019-04-30T15:36:59.747Z,22.00
2019-04-30T15:39:30.968Z,21.80
2019-04-30T15:42:00.254Z,21.70
2019-04-30T15:44:29.534Z,21.80
2019-04-30T15:47:00.586Z,21.80
2019-04-30T15:49:30.030Z,21.70
2019-04-30T15:51:59.304Z,21.80
2019-04-30T15:54:29.281Z,21.90
2019-04-30T15:57:00.429Z,22.00
2019-04-30T15:59:34.183Z,22.30
2019-04-30T16:02:05.092Z,22.60
2019-04-30T16:04:36.013Z,22.60
2019-04-30T16:07:05.366Z,22.60
2019-04-30T16:09:48.999Z,22.30
2019-04-30T16:12:28.984Z,22.10
2019-04-30T16:14:58.557Z,22.40
2019-04-30T16:17:29.182Z,22.90
2019-04-30T16:19:58.533Z,23.80
2019-04-30T16:22:29.184Z,24.60
2019-04-30T16:25:00.434Z,25.10
2019-04-30T16:27:29.776Z,25.90
2019-04-30T16:29:59.539Z,26.00
2019-04-30T16:32:28.806Z,25.90
2019-04-30T16:34:59.281Z,26.00
2019-04-30T16:37:28.919Z,26.30
2019-04-30T16:39:58.197Z,26.20
2019-04-30T16:42:29.065Z,26.00
2019-04-30T16:45:00.564Z,25.30
2019-04-30T16:47:29.746Z,25.10
2019-04-30T16:49:59.109Z,24.70
2019-04-30T16:52:29.426Z,24.80
2019-04-30T16:54:58.782Z,24.60
2019-04-30T16:57:30.126Z,24.80
2019-04-30T16:59:59.415Z,24.90
2019-04-30T17:02:30.630Z,24.90
2019-04-30T17:05:01.653Z,24.90
2019-04-30T17:07:47.879Z,24.90
2019-04-30T17:10:29.368Z,25.00
2019-04-30T17:13:00.601Z,24.70
2019-04-30T17:15:37.303Z,24.40
2019-04-30T17:18:09.843Z,23.90
2019-04-30T17:20:38.684Z,23.50
2019-04-30T17:23:09.481Z,23.40
2019-04-30T17:25:38.851Z,23.10
2019-04-30T17:28:09.157Z,22.80
2019-04-30T17:30:39.246Z,22.80
2019-04-30T17:33:09.487Z,22.50
2019-04-30T17:35:39.261Z,22.30
2019-04-30T17:38:09.682Z,22.10
2019-04-30T17:40:39.291Z,21.90
2019-04-30T17:43:08.566Z,21.90
2019-04-30T17:45:39.185Z,21.60
2019-04-30T17:48:08.564Z,21.40
2019-04-30T17:50:39.647Z,21.20
2019-04-30T17:53:09.125Z,20.80
2019-04-30T17:55:39.233Z,20.50
2019-04-30T17:58:09.771Z,20.40
2019-04-30T18:00:41.167Z,20.20
2019-04-30T18:03:11.129Z,19.90
2019-04-30T18:05:40.793Z,19.70
2019-04-30T18:08:10.399Z,19.50
2019-04-30T18:10:40.416Z,19.30
2019-04-30T18:13:10.020Z,19.20
2019-04-30T18:15:39.299Z,19.00
2019-04-30T18:18:22.943Z,19.00
2019-04-30T18:20:56.831Z,18.80
2019-04-30T18:23:27.000Z,18.70
2019-04-30T18:25:57.992Z,18.50
2019-04-30T18:28:29.158Z,18.40
2019-04-30T18:30:59.086Z,18.20
2019-04-30T18:33:28.684Z,18.20
2019-04-30T18:35:59.702Z,18.00
2019-04-30T18:38:31.022Z,17.90
2019-04-30T18:41:00.399Z,17.70
2019-04-30T18:43:29.675Z,17.60
2019-04-30T18:46:00.719Z,17.30
2019-04-30T18:48:30.333Z,17.10
2019-04-30T18:50:59.612Z,16.90
2019-04-30T18:53:30.531Z,16.80
2019-04-30T18:55:59.816Z,16.70
2019-04-30T18:58:39.321Z,16.70
2019-04-30T19:01:00.105Z,16.60
2019-04-30T19:03:29.424Z,16.40
2019-04-30T19:06:00.294Z,16.30
2019-04-30T19:08:31.212Z,16.20
2019-04-30T19:11:11.034Z,16.20
2019-04-30T19:13:41.971Z,16.10
2019-04-30T19:16:25.496Z,15.90
2019-04-30T19:18:59.253Z,15.80
2019-04-30T19:21:29.281Z,15.70
2019-04-30T19:23:58.734Z,15.60
2019-04-30T19:26:29.271Z,15.50
2019-04-30T19:28:58.653Z,15.40
2019-04-30T19:31:29.636Z,15.30
2019-04-30T19:33:58.993Z,15.10
2019-04-30T19:36:37.396Z,15.10
2019-04-30T19:38:59.836Z,14.90
2019-04-30T19:41:29.375Z,14.80
2019-04-30T19:43:58.679Z,14.80
2019-04-30T19:46:29.448Z,14.70
2019-04-30T19:48:58.735Z,14.60
2019-04-30T19:51:29.609Z,14.60
2019-04-30T19:53:59.885Z,14.50
2019-04-30T19:56:30.438Z,14.40
2019-04-30T19:59:05.279Z,14.20
2019-04-30T20:01:31.243Z,14.10
2019-04-30T20:04:00.526Z,14.10
2019-04-30T20:06:29.807Z,14.00
2019-04-30T20:09:00.821Z,13.90
2019-04-30T20:11:30.149Z,13.80
2019-04-30T20:13:59.432Z,13.70
2019-04-30T20:16:28.712Z,13.60
2019-04-30T20:18:59.184Z,13.50
2019-04-30T20:21:39.654Z,13.40
2019-04-30T20:23:59.579Z,13.40
2019-04-30T20:26:28.862Z,13.30
2019-04-30T20:28:59.022Z,13.20
2019-04-30T20:31:28.837Z,13.10
2019-04-30T20:33:59.402Z,13.00
2019-04-30T20:36:29.176Z,12.90
2019-04-30T20:39:00.093Z,12.80
2019-04-30T20:41:31.012Z,12.70
2019-04-30T20:44:00.318Z,12.60
2019-04-30T20:46:34.855Z,12.60
2019-04-30T20:49:00.599Z,12.60
2019-04-30T20:51:29.874Z,12.50
2019-04-30T20:53:59.319Z,12.50
2019-04-30T20:56:29.193Z,12.40
2019-04-30T20:59:04.097Z,12.40
2019-04-30T21:01:30.035Z,12.30
2019-04-30T21:03:59.637Z,12.20
2019-04-30T21:06:29.734Z,12.20
2019-04-30T21:08:59.466Z,12.10
2019-04-30T21:11:29.080Z,12.00
2019-04-30T21:13:59.082Z,12.00
2019-04-30T21:16:28.801Z,11.90
2019-04-30T21:18:58.081Z,11.90
2019-04-30T21:21:28.721Z,11.80
2019-04-30T21:23:58.120Z,11.70
2019-04-30T21:26:27.737Z,11.70
2019-04-30T21:29:10.460Z,11.60
2019-04-30T21:31:45.219Z,11.50
2019-04-30T21:34:19.631Z,11.50
2019-04-30T21:36:49.655Z,11.40
2019-04-30T21:39:20.108Z,11.30
2019-04-30T21:41:49.759Z,11.20
2019-04-30T21:44:19.365Z,11.10
2019-04-30T21:46:48.656Z,11.10
2019-04-30T21:49:17.935Z,11.00
2019-04-30T21:51:47.475Z,11.00
2019-04-30T21:54:17.089Z,11.00
2019-04-30T21:56:46.691Z,10.90
2019-04-30T21:59:24.106Z,10.80
2019-04-30T22:01:47.051Z,10.70
2019-04-30T22:04:17.158Z,10.70
2019-04-30T22:06:46.584Z,10.70
2019-04-30T22:09:17.187Z,10.60
2019-04-30T22:11:46.465Z,10.50
2019-04-30T22:14:16.321Z,10.40
2019-04-30T22:16:45.849Z,10.40
2019-04-30T22:19:15.432Z,10.40
2019-04-30T22:21:44.849Z,10.40
2019-04-30T22:24:14.127Z,10.30
2019-04-30T22:26:43.724Z,10.20
2019-04-30T22:29:13.330Z,10.10
2019-04-30T22:31:42.675Z,10.10
2019-04-30T22:34:12.029Z,10.00
2019-04-30T22:36:42.950Z,10.00
2019-04-30T22:39:20.136Z,9.90
2019-04-30T22:41:49.374Z,9.90
2019-04-30T22:44:18.643Z,9.80
2019-04-30T22:46:49.253Z,9.80
2019-04-30T22:49:18.669Z,9.70
2019-04-30T22:51:47.945Z,9.70
2019-04-30T22:54:17.225Z,9.60
2019-04-30T22:56:46.744Z,9.60
2019-04-30T22:59:16.018Z,9.50
2019-04-30T23:01:49.657Z,9.50
2019-04-30T23:04:20.571Z,9.50
2019-04-30T23:06:49.843Z,9.40
2019-04-30T23:09:19.197Z,9.40
2019-04-30T23:11:48.479Z,9.40
2019-04-30T23:14:17.827Z,9.30
2019-04-30T23:16:47.097Z,9.30
2019-04-30T23:19:16.367Z,9.30
2019-04-30T23:21:45.640Z,9.20
2019-04-30T23:24:14.913Z,9.20
2019-04-30T23:26:44.190Z,9.10
2019-04-30T23:29:13.455Z,9.10
2019-04-30T23:31:42.730Z,9.10
2019-04-30T23:34:18.035Z,9.00
2019-04-30T23:36:42.999Z,9.00
2019-04-30T23:39:12.703Z,9.00
2019-04-30T23:41:41.980Z,8.90
2019-04-30T23:44:11.257Z,8.90
2019-04-30T23:46:40.530Z,8.90
2019-04-30T23:49:09.805Z,8.80
2019-04-30T23:51:39.080Z,8.80
2019-04-30T23:54:08.361Z,8.70
2019-04-30T23:56:37.641Z,8.70
2019-04-30T23:59:06.938Z,8.70
